Time;durP1;ratioP1;P1;durP2;ratioP2;P2;SDS_P1;SDS_P2;PMS_P1;PMS_P2;Temp;Humidity;BMP_temperature;BMP_pressure;BME280_temperature;BME280_humidity;BME280_pressure;Samples;Min_cycle;Max_cycle;Signal;HPM_P1;HPM_P2
2024/04/19 00:00:53;;;;;;;;;;;8.80;99.90;;;9.17;59.00;100327.00;5493714;26;19928;-84
2024/04/19 00:03:19;;;;;;;;;;;8.90;99.90;;;9.19;59.55;100314.31;5518404;26;19934;-84
2024/04/19 00:05:48;;;;;;;;;;;8.90;99.90;;;9.24;59.64;100311.06;5509810;26;19931;-84
2024/04/19 00:08:33;;;;;;;;;;;8.90;99.90;;;9.26;60.13;100309.81;5523228;26;20306;-84
2024/04/19 00:11:02;;;;;;;;;;;8.90;99.90;;;9.24;59.78;100303.06;5502066;25;19956;-84
2024/04/19 00:13:34;;;;;;;;;;;8.90;99.90;;;9.21;60.24;100298.97;5501700;26;19928;-84
2024/04/19 00:16:00;;;;;;;;;;;8.90;99.90;;;9.24;60.16;100308.38;5518394;25;20385;-84
2024/04/19 00:18:29;;;;;;;;;;;8.90;99.90;;;9.19;60.20;100308.19;5500831;26;19928;-84
2024/04/19 00:20:56;;;;;;;;;;;8.90;99.90;;;9.22;60.65;100308.59;5504934;26;19927;-84
2024/04/19 00:23:25;;;;;;;;;;;8.90;99.90;;;9.26;61.23;100287.69;5506891;26;19931;-85
2024/04/19 00:25:54;;;;;;;;;;;8.90;99.90;;;9.13;62.37;100299.19;5522169;25;19927;-84
2024/04/19 00:28:37;;;;;;;;;;;8.80;99.90;;;9.08;62.73;100287.50;5515791;26;20362;-84
2024/04/19 00:31:06;;;;;;;;;;;8.80;99.90;;;9.12;63.50;100280.75;5528001;26;19995;-85
2024/04/19 00:33:33;;;;;;;;;;;8.80;99.90;;;9.12;63.62;100286.06;5504472;26;19927;-86
2024/04/19 00:36:01;;;;;;;;;;;8.80;99.90;;;9.15;63.76;100281.16;5523848;26;19928;-85
2024/04/19 00:38:27;;;;;;;;;;;8.80;99.90;;;9.13;63.98;100277.09;5521247;26;19939;-85
2024/04/19 00:40:57;;;;;;;;;;;8.80;99.90;;;9.03;64.48;100288.97;5516709;25;19927;-85
2024/04/19 00:43:23;;;;;;;;;;;8.70;99.90;;;9.05;64.84;100275.44;5495074;26;19928;-84
2024/04/19 00:45:55;;;;;;;;;;;8.90;99.90;;;9.09;64.68;100273.22;5515641;25;19928;-85
2024/04/19 00:48:22;;;;;;;;;;;8.70;99.90;;;8.98;64.59;100270.16;5493264;26;20000;-85
2024/04/19 00:50:56;;;;;;;;;;;8.70;99.90;;;8.99;65.35;100271.78;5493230;26;20395;-85
2024/04/19 00:53:26;;;;;;;;;;;8.60;99.90;;;8.99;65.14;100270.97;5498753;26;19928;-85
2024/04/19 00:55:57;;;;;;;;;;;8.60;99.90;;;9.03;65.40;100267.69;5516994;25;20387;-85
2024/04/19 00:58:24;;;;;;;;;;;8.70;99.90;;;9.06;65.65;100260.31;5501719;26;20375;-85
2024/04/19 01:00:56;;;;;;;;;;;8.70;99.90;;;9.07;65.79;100251.28;5519692;26;20007;-84
2024/04/19 01:03:22;;;;;;;;;;;8.70;99.90;;;9.03;65.77;100250.91;5508848;26;20286;-85
2024/04/19 01:05:51;;;;;;;;;;;8.70;99.90;;;9.03;66.41;100241.09;5505520;26;19928;-85
2024/04/19 01:08:27;;;;;;;;;;;8.70;99.90;;;9.07;66.60;100230.00;5492682;26;19928;-85
2024/04/19 01:10:56;;;;;;;;;;;8.70;99.90;;;9.07;67.09;100222.84;5505616;26;20026;-85
2024/04/19 01:13:22;;;;;;;;;;;8.70;99.90;;;9.04;67.18;100212.63;5492546;26;19942;-86
2024/04/19 01:15:51;;;;;;;;;;;8.70;99.90;;;9.04;67.23;100209.97;5501970;26;19939;-85
2024/04/19 01:18:20;;;;;;;;;;;8.70;99.90;;;9.01;67.97;100208.53;5527089;26;19927;-85
2024/04/19 01:20:49;;;;;;;;;;;8.70;99.90;;;8.98;67.84;100202.84;5528900;26;19928;-85
2024/04/19 01:23:17;;;;;;;;;;;8.60;99.90;;;8.88;68.50;100192.63;5519024;26;19928;-84
2024/04/19 01:25:46;;;;;;;;;;;8.60;99.90;;;8.89;68.55;100191.59;5512961;26;19934;-85
2024/04/19 01:28:15;;;;;;;;;;;8.60;99.90;;;8.80;69.00;100187.50;5499442;26;19931;-85
2024/04/19 01:30:45;;;;;;;;;;;8.50;99.90;;;8.74;69.34;100183.03;5517535;26;19927;-85
2024/04/19 01:33:14;;;;;;;;;;;8.50;99.90;;;8.82;69.60;100172.16;5524399;26;19943;-85
2024/04/19 01:35:41;;;;;;;;;;;8.50;99.90;;;8.86;69.56;100178.69;5507116;26;19938;-85
2024/04/19 01:38:10;;;;;;;;;;;8.60;99.90;;;8.81;69.54;100177.69;5512454;26;19936;-85
2024/04/19 01:40:36;;;;;;;;;;;8.50;99.90;;;8.81;69.62;100164.41;5510084;25;19935;-85
2024/04/19 01:43:05;;;;;;;;;;;8.50;99.90;;;8.79;69.66;100153.16;5500292;25;19932;-84
2024/04/19 01:45:34;;;;;;;;;;;8.50;99.90;;;8.81;70.11;100151.09;5509670;25;19931;-85
2024/04/19 01:48:03;;;;;;;;;;;8.50;99.90;;;8.79;70.04;100151.31;5507169;26;19952;-85
2024/04/19 01:50:29;;;;;;;;;;;8.50;99.90;;;8.70;70.33;100145.38;5500253;26;20403;-85
2024/04/19 01:52:58;;;;;;;;;;;8.40;99.90;;;8.69;70.30;100138.44;5497753;26;19995;-85
2024/04/19 01:55:24;;;;;;;;;;;8.40;99.90;;;8.58;70.67;100128.41;5514507;26;20283;-85
2024/04/19 01:57:53;;;;;;;;;;;8.30;99.90;;;8.60;70.83;100128.22;5524279;26;19927;-85
2024/04/19 02:00:20;;;;;;;;;;;8.30;99.90;;;8.56;70.99;100117.19;5501929;26;19928;-85
2024/04/19 02:02:51;;;;;;;;;;;8.30;99.90;;;8.60;71.15;100107.78;5506785;26;19927;-85
2024/04/19 02:05:17;;;;;;;;;;;8.30;99.90;;;8.68;71.02;100090.78;5499463;26;19984;-85
2024/04/19 02:07:46;;;;;;;;;;;8.30;99.90;;;8.64;70.96;100101.03;5499027;26;20387;-85
2024/04/19 02:10:12;;;;;;;;;;;8.30;99.90;;;8.66;70.75;100104.28;5525731;26;20268;-86
2024/04/19 02:12:41;;;;;;;;;;;8.40;99.90;;;8.69;71.25;100089.78;5495870;26;19934;-85
2024/04/19 02:15:07;;;;;;;;;;;8.30;99.90;;;8.66;71.26;100091.00;5518247;26;19956;-85
2024/04/19 02:17:36;;;;;;;;;;;8.30;99.90;;;8.67;71.39;100087.31;5490300;26;19928;-85
2024/04/19 02:20:06;;;;;;;;;;;8.30;99.90;;;8.64;71.56;100079.78;5508017;26;19978;-85
2024/04/19 02:22:35;;;;;;;;;;;8.30;99.90;;;8.59;72.00;100082.22;5498379;26;20276;-85
2024/04/19 02:25:01;;;;;;;;;;;8.30;99.90;;;8.63;71.64;100074.63;5507560;26;20025;-85
2024/04/19 02:32:59;;;;;;;;;;;8.30;99.90;;;8.61;71.92;100056.25;5503469;26;19940;-85
2024/04/19 02:35:31;;;;;;;;;;;8.30;99.90;;;8.64;71.75;100044.41;5511686;26;19967;-85
2024/04/19 02:37:59;;;;;;;;;;;8.30;99.90;;;8.56;71.99;100042.78;5524670;26;19928;-86
2024/04/19 02:40:28;;;;;;;;;;;8.30;99.90;;;8.58;72.34;100035.38;5496537;26;19934;-85
2024/04/19 02:42:54;;;;;;;;;;;8.30;99.90;;;8.53;72.44;100013.94;5511767;26;20021;-85
2024/04/19 02:45:23;;;;;;;;;;;8.20;99.90;;;8.48;72.24;100021.72;5507164;26;19935;-85
2024/04/19 02:47:52;;;;;;;;;;;8.20;99.90;;;8.52;72.39;100014.97;5515981;26;19943;-85
2024/04/19 02:50:21;;;;;;;;;;;8.20;99.90;;;8.53;72.81;100005.97;5493182;26;20383;-85
2024/04/19 02:52:52;;;;;;;;;;;8.20;99.90;;;8.54;72.58;100007.63;5505108;26;19928;-85
2024/04/19 02:55:22;;;;;;;;;;;8.20;99.90;;;8.49;72.91;100004.75;5520762;26;19931;-85
2024/04/19 02:57:51;;;;;;;;;;;8.20;99.90;;;8.42;73.41;99996.81;5508859;26;19931;-85
2024/04/19 03:00:40;;;;;;;;;;;8.10;99.90;;;8.45;73.58;99982.31;5503260;26;19927;-85
2024/04/19 03:03:09;;;;;;;;;;;8.10;99.90;;;8.36;73.81;99984.34;5522741;26;19928;-85
2024/04/19 03:05:38;;;;;;;;;;;8.10;99.90;;;8.35;73.96;99987.19;5495492;26;19935;-85
2024/04/19 03:08:10;;;;;;;;;;;8.10;99.90;;;8.36;73.89;99980.84;5512057;26;19927;-85
2024/04/19 03:10:40;;;;;;;;;;;8.10;99.90;;;8.43;74.27;99979.00;5498640;26;19956;-85
2024/04/19 03:13:11;;;;;;;;;;;8.10;99.90;;;8.41;74.09;99970.44;5492460;26;19968;-85
2024/04/19 03:15:40;;;;;;;;;;;8.10;99.90;;;8.30;74.59;99957.78;5510024;26;20272;-85
2024/04/19 03:18:09;;;;;;;;;;;8.10;99.90;;;8.30;74.82;99953.28;5506464;26;19928;-85
2024/04/19 03:20:38;;;;;;;;;;;8.00;99.90;;;8.31;74.99;99954.91;5492814;26;19928;-86
2024/04/19 03:23:10;;;;;;;;;;;8.00;99.90;;;8.37;74.55;99942.66;5502203;26;20412;-85
2024/04/19 03:25:39;;;;;;;;;;;8.10;99.90;;;8.29;74.74;99938.34;5494926;26;19928;-85
2024/04/19 03:28:08;;;;;;;;;;;8.10;99.90;;;8.30;74.85;99936.53;5506907;26;19975;-85
2024/04/19 03:30:36;;;;;;;;;;;8.10;99.90;;;8.37;74.97;99924.06;5521273;26;19938;-85
2024/04/19 03:33:05;;;;;;;;;;;8.10;99.90;;;8.32;75.00;99921.19;5528742;26;20000;-85
2024/04/19 03:35:34;;;;;;;;;;;8.10;99.90;;;8.27;74.78;99917.31;5510423;26;20405;-85
2024/04/19 03:38:02;;;;;;;;;;;8.00;99.90;;;8.34;75.56;99921.78;5509008;26;19927;-85
2024/04/19 03:40:34;;;;;;;;;;;8.10;99.90;;;8.27;74.91;99919.16;5513665;26;19927;-85
2024/04/19 03:43:03;;;;;;;;;;;8.00;99.90;;;8.27;75.39;99911.19;5526537;26;19955;-85
2024/04/19 03:45:44;;;;;;;;;;;8.00;99.90;;;8.22;75.16;99909.16;5521748;26;19934;-85
2024/04/19 03:48:14;;;;;;;;;;;8.00;99.90;;;8.18;75.73;99912.44;5527074;26;19936;-85
2024/04/19 03:50:46;;;;;;;;;;;8.00;99.90;;;8.22;75.81;99911.00;5510132;26;19928;-85
2024/04/19 03:53:14;;;;;;;;;;;8.00;99.90;;;8.24;75.61;99907.09;5509128;26;19959;-85
2024/04/19 03:55:46;;;;;;;;;;;8.00;99.90;;;8.29;75.41;99908.31;5513192;26;20306;-85
2024/04/19 03:58:15;;;;;;;;;;;8.00;99.90;;;8.20;75.49;99911.22;5497101;26;20370;-85
2024/04/19 04:00:44;;;;;;;;;;;8.00;99.90;;;8.10;75.77;99889.59;5521149;26;19927;-85
2024/04/19 04:03:10;;;;;;;;;;;7.90;99.90;;;8.09;75.79;99890.59;5516087;25;20034;-85
2024/04/19 04:05:41;;;;;;;;;;;7.90;99.90;;;8.15;75.80;99881.81;5495021;26;19928;-85
2024/04/19 04:08:10;;;;;;;;;;;7.90;99.90;;;8.15;76.10;99876.50;5513245;26;19955;-85
2024/04/19 04:10:39;;;;;;;;;;;7.90;99.90;;;8.20;75.61;99858.09;5515807;26;19939;-85
2024/04/19 04:13:10;;;;;;;;;;;8.00;99.90;;;8.12;75.41;99860.97;5525581;26;19937;-86
2024/04/19 04:15:43;;;;;;;;;;;8.00;99.90;;;8.06;75.82;99853.88;5503779;26;20597;-85
2024/04/19 04:18:12;;;;;;;;;;;7.90;99.90;;;8.11;75.96;99847.91;5516927;26;19927;-85
2024/04/19 04:20:41;;;;;;;;;;;7.90;99.90;;;8.12;75.92;99845.03;5512827;26;19934;-85
2024/04/19 04:23:10;;;;;;;;;;;7.90;99.90;;;8.14;75.96;99842.97;5493269;26;19941;-85
2024/04/19 04:25:39;;;;;;;;;;;7.90;99.90;;;8.00;75.88;99830.78;5497109;26;19928;-85
2024/04/19 04:28:10;;;;;;;;;;;7.80;99.90;;;7.95;76.65;99827.94;5522137;26;19927;-85
2024/04/19 04:30:39;;;;;;;;;;;7.80;99.90;;;8.06;76.43;99819.34;5493631;26;19993;-85
2024/04/19 04:33:08;;;;;;;;;;;7.80;99.90;;;8.04;76.23;99816.06;5491876;26;19928;-85
2024/04/19 04:35:39;;;;;;;;;;;7.80;99.90;;;8.01;76.21;99813.84;5492104;26;19928;-87
2024/04/19 04:38:08;;;;;;;;;;;7.90;99.90;;;8.06;76.78;99802.59;5506498;26;19934;-85
2024/04/19 04:40:40;;;;;;;;;;;7.90;99.90;;;8.09;76.34;99799.50;5528738;26;19927;-85
2024/04/19 04:43:14;;;;;;;;;;;7.90;99.90;;;8.07;76.47;99789.09;5496261;26;20014;-85
2024/04/19 04:45:43;;;;;;;;;;;7.90;99.90;;;8.02;76.47;99785.44;5496117;26;19942;-85
2024/04/19 04:48:12;;;;;;;;;;;7.90;99.90;;;8.07;76.37;99782.97;5527109;26;19967;-85
2024/04/19 04:50:41;;;;;;;;;;;7.90;99.90;;;8.01;76.37;99768.72;5510912;26;19927;-85
2024/04/19 04:53:10;;;;;;;;;;;7.80;99.90;;;7.99;77.21;99778.72;5512473;26;19934;-87
2024/04/19 04:55:39;;;;;;;;;;;7.80;99.90;;;7.99;76.93;99776.06;5510676;26;19928;-86
2024/04/19 04:58:08;;;;;;;;;;;7.80;99.90;;;8.00;77.08;99775.03;5492768;26;19935;-85
2024/04/19 05:00:39;;;;;;;;;;;7.80;99.90;;;8.04;76.88;99768.25;5515625;26;20009;-86
2024/04/19 05:03:08;;;;;;;;;;;7.80;99.90;;;7.91;77.11;99768.34;5529424;25;19934;-85
2024/04/19 05:05:37;;;;;;;;;;;7.70;99.90;;;7.85;77.73;99763.84;5528922;26;19932;-88
2024/04/19 05:08:06;;;;;;;;;;;7.70;99.90;;;7.96;77.77;99757.91;5513409;26;20398;-87
2024/04/19 05:10:35;;;;;;;;;;;7.80;99.90;;;7.88;77.70;99747.53;5505493;25;19928;-87
2024/04/19 05:13:04;;;;;;;;;;;7.80;99.90;;;7.95;77.92;99743.81;5492712;26;19998;-86
2024/04/19 05:15:33;;;;;;;;;;;7.80;99.90;;;7.97;77.89;99749.72;5493826;26;20276;-87
2024/04/19 05:18:04;;;;;;;;;;;7.80;99.90;;;7.97;77.78;99751.56;5495562;26;20480;-87
2024/04/19 05:20:33;;;;;;;;;;;7.80;99.90;;;8.04;76.92;99754.19;5494620;26;19936;-87
2024/04/19 05:23:02;;;;;;;;;;;7.90;99.90;;;8.00;77.71;99733.38;5491427;26;19935;-85
2024/04/19 05:25:31;;;;;;;;;;;7.80;99.90;;;7.98;77.80;99737.25;5525992;26;20277;-85
2024/04/19 05:28:00;;;;;;;;;;;7.80;99.90;;;7.96;77.83;99739.31;5527629;25;19934;-86
2024/04/19 05:30:29;;;;;;;;;;;7.90;99.90;;;8.00;78.14;99724.56;5527005;25;20009;-86
2024/04/19 05:32:59;;;;;;;;;;;7.80;99.90;;;7.90;77.97;99716.25;5508809;26;19927;-85
2024/04/19 05:35:31;;;;;;;;;;;7.80;99.90;;;7.95;77.79;99711.97;5494094;26;19987;-85
2024/04/19 05:37:59;;;;;;;;;;;7.80;99.90;;;8.01;78.17;99720.91;5504021;26;19938;-86
2024/04/19 05:40:28;;;;;;;;;;;7.90;99.90;;;8.05;78.00;99716.78;5529658;25;19931;-83
2024/04/19 05:42:57;;;;;;;;;;;7.90;99.90;;;8.04;78.09;99723.13;5528804;25;19927;-85
2024/04/19 05:45:26;;;;;;;;;;;7.90;99.90;;;8.08;78.13;99699.63;5495540;26;19935;-85
2024/04/19 05:47:55;;;;;;;;;;;7.90;99.90;;;8.09;77.97;99715.31;5504617;26;19935;-85
2024/04/19 05:50:24;;;;;;;;;;;7.90;99.90;;;8.06;78.06;99699.03;5504759;26;20383;-85
2024/04/19 05:52:55;;;;;;;;;;;7.90;99.90;;;7.93;78.15;99707.88;5494868;26;19963;-85
2024/04/19 05:55:24;;;;;;;;;;;7.80;99.90;;;7.95;78.86;99695.19;5531474;25;19928;-85
2024/04/19 05:57:53;;;;;;;;;;;7.80;99.90;;;8.04;78.75;99693.09;5514524;25;19939;-85
2024/04/19 06:00:22;;;;;;;;;;;7.90;99.90;;;8.07;78.64;99690.84;5493764;26;19928;-85
2024/04/19 06:02:51;;;;;;;;;;;7.90;99.90;;;8.15;78.12;99677.31;5514747;26;19934;-85
2024/04/19 06:05:20;;;;;;;;;;;8.00;99.90;;;8.14;78.42;99678.31;5534354;25;19976;-85
2024/04/19 06:07:49;;;;;;;;;;;8.00;99.90;;;8.12;78.61;99672.41;5523210;25;19932;-84
2024/04/19 06:10:20;;;;;;;;;;;8.00;99.90;;;8.18;78.61;99678.72;5527102;26;19927;-85
2024/04/19 06:12:49;;;;;;;;;;;8.00;99.90;;;8.20;78.53;99666.84;5505781;26;19934;-85
2024/04/19 06:15:18;;;;;;;;;;;8.00;99.90;;;8.24;78.50;99662.72;5499647;26;19928;-83
2024/04/19 06:17:52;;;;;;;;;;;8.00;99.90;;;8.23;78.73;99665.59;5527466;25;20375;-83
2024/04/19 06:20:21;;;;;;;;;;;8.00;99.90;;;8.21;78.76;99665.81;5530395;26;19927;-83
2024/04/19 06:22:49;;;;;;;;;;;8.00;99.90;;;8.23;78.45;99655.78;5531185;26;19943;-86
2024/04/19 06:25:24;;;;;;;;;;;8.00;99.90;;;8.20;78.74;99650.91;5532214;26;19999;-86
2024/04/19 06:27:52;;;;;;;;;;;8.00;99.90;;;8.19;78.53;99653.78;5517687;25;19927;-86
2024/04/19 06:30:21;;;;;;;;;;;8.00;99.90;;;8.21;78.53;99646.41;5497637;26;19936;-85
2024/04/19 06:32:50;;;;;;;;;;;8.10;99.90;;;8.20;79.08;99645.59;5495227;26;20278;-84
2024/04/19 06:35:19;;;;;;;;;;;8.10;99.90;;;8.20;79.28;99637.66;5499819;26;19936;-86
2024/04/19 06:37:48;;;;;;;;;;;8.00;99.90;;;8.24;79.68;99646.78;5526667;25;19959;-86
2024/04/19 06:40:17;;;;;;;;;;;8.10;99.90;;;8.23;79.76;99639.84;5512182;26;19928;-87
2024/04/19 06:42:48;;;;;;;;;;;8.10;99.90;;;8.26;79.76;99628.00;5530702;25;19931;-86
2024/04/19 06:45:17;;;;;;;;;;;8.10;99.90;;;8.24;79.95;99632.69;5531145;25;20016;-86
2024/04/19 06:47:48;;;;;;;;;;;8.10;99.90;;;8.21;80.10;99625.97;5525450;26;19928;-85
2024/04/19 06:50:17;;;;;;;;;;;8.10;99.90;;;8.26;80.05;99623.50;5494307;26;19960;-86
2024/04/19 06:52:46;;;;;;;;;;;8.10;99.90;;;8.30;79.80;99620.41;5494072;26;19932;-86
2024/04/19 06:55:15;;;;;;;;;;;8.20;99.90;;;8.28;79.54;99620.59;5494664;26;19973;-86
2024/04/19 06:57:44;;;;;;;;;;;8.20;99.90;;;8.14;80.51;99609.28;5497480;26;20407;-85
2024/04/19 07:00:16;;;;;;;;;;;8.30;99.90;;;8.11;81.13;99599.09;5532501;25;19927;-86
2024/04/19 07:02:49;;;;;;;;;;;8.10;99.90;;;8.18;81.42;99602.50;5532400;25;19927;-86
2024/04/19 07:05:18;;;;;;;;;;;8.10;99.90;;;8.25;81.31;99602.47;5531785;26;19995;-86
2024/04/19 07:07:49;;;;;;;;;;;8.20;99.90;;;8.22;81.74;99598.38;5529171;26;20001;-86
2024/04/19 07:10:22;;;;;;;;;;;8.20;99.90;;;8.28;81.54;99607.31;5529476;26;20024;-86
2024/04/19 07:12:51;;;;;;;;;;;8.20;99.90;;;8.28;81.52;99583.41;5531194;26;20389;-86
2024/04/19 07:15:23;;;;;;;;;;;8.20;99.90;;;8.32;81.75;99594.44;5531001;25;19928;-86
2024/04/19 07:17:50;;;;;;;;;;;8.20;99.90;;;8.26;82.30;99585.50;5523255;26;19928;-85
2024/04/19 07:20:19;;;;;;;;;;;8.20;99.90;;;8.25;82.37;99599.81;5493336;26;19928;-86
2024/04/19 07:22:48;;;;;;;;;;;8.20;99.90;;;8.28;82.52;99583.41;5493456;26;19934;-86
2024/04/19 07:25:16;;;;;;;;;;;8.30;99.90;;;8.32;82.55;99587.25;5493397;26;19940;-85
2024/04/19 07:27:45;;;;;;;;;;;8.30;99.90;;;8.32;82.76;99581.16;5500531;26;19939;-86
2024/04/19 07:30:15;;;;;;;;;;;8.30;99.90;;;8.35;82.97;99573.56;5531189;26;19955;-86
2024/04/19 07:32:46;;;;;;;;;;;8.30;99.90;;;8.37;82.90;99576.81;5529269;26;20028;-86
2024/04/19 07:35:15;;;;;;;;;;;8.30;99.90;;;8.42;82.89;99563.69;5530538;26;20276;-86
2024/04/19 07:37:44;;;;;;;;;;;8.40;99.90;;;8.47;82.64;99555.06;5519792;26;19928;-86
2024/04/19 07:40:13;;;;;;;;;;;8.40;99.90;;;8.50;83.01;99554.63;5493398;26;19935;-86
2024/04/19 07:42:42;;;;;;;;;;;8.40;99.90;;;8.59;82.78;99565.78;5493581;26;19928;-86
2024/04/19 07:45:11;;;;;;;;;;;8.50;99.90;;;8.60;83.00;99565.56;5491067;26;20371;-86
2024/04/19 07:47:40;;;;;;;;;;;8.50;99.90;;;8.58;83.23;99585.41;5491039;26;19928;-86
2024/04/19 07:50:12;;;;;;;;;;;8.50;99.90;;;8.52;83.45;99569.31;5492968;26;19939;-86
2024/04/19 07:52:41;;;;;;;;;;;8.50;99.90;;;8.58;83.57;99567.63;5492971;26;20004;-86
2024/04/19 07:55:10;;;;;;;;;;;8.50;99.90;;;8.66;83.53;99556.72;5491253;26;19928;-86
2024/04/19 07:57:39;;;;;;;;;;;8.60;99.90;;;8.70;83.36;99557.91;5493215;26;19928;-86
2024/04/19 08:00:15;;;;;;;;;;;8.60;99.90;;;8.69;83.63;99561.59;5493271;26;19935;-86
2024/04/19 08:02:43;;;;;;;;;;;8.70;99.90;;;8.69;84.03;99548.31;5496037;26;19940;-86
2024/04/19 08:05:18;;;;;;;;;;;8.70;99.90;;;8.75;84.43;99554.56;5511898;26;19953;-86
2024/04/19 08:07:47;;;;;;;;;;;8.70;99.90;;;8.82;84.21;99546.50;5529487;26;19927;-86
2024/04/19 08:10:16;;;;;;;;;;;8.80;99.90;;;8.81;84.45;99559.00;5529190;25;19935;-86
2024/04/19 08:12:45;;;;;;;;;;;8.80;99.90;;;8.86;84.65;99550.34;5527624;26;20275;-86
2024/04/19 08:15:14;;;;;;;;;;;8.80;99.90;;;8.89;84.91;99544.59;5527905;26;19939;-86
2024/04/19 08:17:43;;;;;;;;;;;8.90;99.90;;;8.91;85.31;99561.94;5529291;25;19931;-86
2024/04/19 08:20:14;;;;;;;;;;;8.90;99.90;;;8.93;85.44;99553.75;5529766;26;19935;-86
2024/04/19 08:22:43;;;;;;;;;;;9.00;99.90;;;8.97;86.03;99536.31;5497537;26;20028;-87
2024/04/19 08:25:09;;;;;;;;;;;9.00;99.90;;;9.02;85.75;99537.25;5503828;26;19935;-86
2024/04/19 08:27:38;;;;;;;;;;;9.00;99.90;;;8.99;86.25;99535.06;5493560;26;19928;-85
2024/04/19 08:30:09;;;;;;;;;;;9.10;99.90;;;9.01;86.57;99529.50;5494982;26;19928;-86
2024/04/19 08:32:37;;;;;;;;;;;9.00;99.90;;;9.04;86.36;99523.75;5529514;26;19928;-84
2024/04/19 08:35:07;;;;;;;;;;;9.10;99.90;;;9.10;86.33;99520.19;5532685;26;20439;-85
2024/04/19 08:37:38;;;;;;;;;;;9.10;99.90;;;9.11;86.27;99519.16;5530112;26;19934;-85
2024/04/19 08:40:08;;;;;;;;;;;9.10;99.90;;;9.13;86.59;99509.09;5531113;25;19928;-85
2024/04/19 08:42:37;;;;;;;;;;;9.20;99.90;;;9.16;86.44;99516.63;5532634;25;19935;-85
2024/04/19 08:45:08;;;;;;;;;;;9.20;99.90;;;9.15;86.18;99525.63;5530572;25;19985;-86
2024/04/19 08:47:38;;;;;;;;;;;9.20;99.90;;;9.14;86.18;99518.72;5530341;25;19934;-86
2024/04/19 08:50:08;;;;;;;;;;;9.20;99.90;;;9.20;85.77;99522.31;5527602;25;19934;-86
2024/04/19 08:52:40;;;;;;;;;;;9.20;99.90;;;9.24;85.91;99539.44;5530266;26;19927;-86
2024/04/19 08:55:11;;;;;;;;;;;9.20;99.90;;;9.22;85.44;99526.38;5530642;25;19927;-86
2024/04/19 08:57:42;;;;;;;;;;;9.20;99.90;;;9.25;85.51;99527.75;5528628;25;20003;-84
2024/04/19 09:00:11;;;;;;;;;;;9.20;99.90;;;9.26;85.04;99540.84;5524538;26;19934;-88
2024/04/19 09:02:40;;;;;;;;;;;9.20;99.90;;;9.24;84.86;99532.28;5490988;26;19928;-86
2024/04/19 09:05:09;;;;;;;;;;;9.20;99.90;;;9.14;83.50;99534.66;5491176;26;19935;-86
2024/04/19 09:07:41;;;;;;;;;;;9.10;99.90;;;9.12;82.25;99536.72;5491088;26;19928;-86
2024/04/19 09:10:12;;;;;;;;;;;9.10;99.90;;;9.10;82.33;99522.03;5493528;26;19935;-86
2024/04/19 09:12:41;;;;;;;;;;;9.00;99.90;;;9.15;82.78;99524.84;5494773;26;20022;-85
2024/04/19 09:15:10;;;;;;;;;;;9.00;99.90;;;9.14;82.25;99512.56;5528164;26;19941;-86
2024/04/19 09:17:39;;;;;;;;;;;9.00;99.90;;;9.16;82.90;99510.50;5527850;25;20260;-86
2024/04/19 09:20:11;;;;;;;;;;;9.00;99.90;;;9.17;83.10;99507.59;5524829;25;19928;-86
2024/04/19 09:22:42;;;;;;;;;;;9.00;99.90;;;9.20;83.74;99525.78;5493472;26;19928;-87
2024/04/19 09:25:11;;;;;;;;;;;9.10;99.90;;;9.17;84.01;99523.56;5490629;26;19935;-87
2024/04/19 09:27:40;;;;;;;;;;;9.10;99.90;;;9.17;84.51;99522.75;5490657;26;19939;-86
2024/04/19 09:30:11;;;;;;;;;;;9.10;99.90;;;9.18;84.49;99527.88;5493786;26;19928;-86
2024/04/19 09:32:40;;;;;;;;;;;9.10;99.90;;;9.15;84.44;99541.59;5527302;26;20274;-86
2024/04/19 09:35:09;;;;;;;;;;;9.10;99.90;;;9.11;84.57;99529.78;5527353;25;19928;-86
2024/04/19 09:37:38;;;;;;;;;;;9.10;99.90;;;9.09;84.56;99526.56;5527288;25;19927;-85
2024/04/19 09:40:11;;;;;;;;;;;9.10;99.90;;;9.11;84.19;99519.16;5524386;26;20393;-86
2024/04/19 09:42:41;;;;;;;;;;;9.00;99.90;;;9.14;84.18;99521.38;5527754;25;19934;-86
2024/04/19 09:45:11;;;;;;;;;;;9.10;99.90;;;9.10;84.08;99512.22;5526425;26;19931;-87
2024/04/19 09:47:41;;;;;;;;;;;9.00;99.90;;;9.08;83.80;99493.00;5526788;26;19928;-86
2024/04/19 09:50:13;;;;;;;;;;;9.00;99.90;;;9.13;84.08;99500.31;5516469;25;20018;-86
2024/04/19 09:52:45;;;;;;;;;;;9.00;99.90;;;9.10;83.35;99506.09;5490992;26;19928;-86
2024/04/19 09:55:20;;;;;;;;;;;9.00;99.90;;;9.15;83.95;99501.69;5490156;26;20387;-86
2024/04/19 09:57:49;;;;;;;;;;;9.10;99.90;;;9.24;83.81;99489.72;5493964;26;19927;-86
2024/04/19 10:00:18;;;;;;;;;;;9.20;99.90;;;9.29;83.53;99492.50;5501269;26;19946;-86
2024/04/19 10:02:47;;;;;;;;;;;9.20;99.90;;;9.29;83.48;99495.16;5530414;26;19935;-86
2024/04/19 10:05:19;;;;;;;;;;;9.20;99.90;;;9.32;83.57;99493.91;5525161;25;19928;-86
2024/04/19 10:07:48;;;;;;;;;;;9.30;99.90;;;9.32;83.65;99503.72;5494921;26;19928;-86
2024/04/19 10:10:20;;;;;;;;;;;9.30;99.90;;;9.36;84.09;99508.34;5500829;26;19928;-87
2024/04/19 10:12:49;;;;;;;;;;;9.30;99.90;;;9.41;84.19;99500.50;5530907;26;20003;-86
2024/04/19 10:15:22;;;;;;;;;;;9.40;99.90;;;9.45;84.11;99496.34;5530276;26;19927;-86
2024/04/19 10:17:51;;;;;;;;;;;9.40;99.90;;;9.38;83.83;99503.63;5530877;25;19938;-87
2024/04/19 10:20:21;;;;;;;;;;;9.40;99.90;;;9.41;83.99;99492.53;5520103;26;19935;-87
2024/04/19 10:22:52;;;;;;;;;;;9.40;99.90;;;9.32;83.57;99498.41;5514443;26;19935;-87
2024/04/19 10:25:26;;;;;;;;;;;9.30;99.90;;;9.28;83.45;99496.19;5501706;26;20264;-87
2024/04/19 10:27:55;;;;;;;;;;;9.30;99.90;;;9.26;83.96;99489.47;5528952;26;19927;-87
2024/04/19 10:30:24;;;;;;;;;;;9.20;99.90;;;9.28;83.99;99487.41;5526877;26;19951;-87
2024/04/19 10:32:54;;;;;;;;;;;9.20;99.90;;;9.29;84.06;99478.38;5530571;26;19928;-87
2024/04/19 10:35:24;;;;;;;;;;;9.20;99.90;;;9.34;84.42;99467.88;5529324;25;19934;-86
2024/04/19 10:37:53;;;;;;;;;;;9.30;99.90;;;9.40;84.33;99466.16;5530564;26;19934;-86
2024/04/19 10:40:25;;;;;;;;;;;9.40;99.90;;;9.37;84.28;99471.91;5527455;25;19934;-87
2024/04/19 10:43:04;;;;;;;;;;;9.30;99.90;;;9.39;84.16;99467.19;5527893;26;19934;-87
2024/04/19 10:45:34;;;;;;;;;;;9.30;99.90;;;9.40;84.23;99455.50;5520927;25;20002;-87
2024/04/19 10:48:05;;;;;;;;;;;9.40;99.90;;;9.44;84.32;99460.13;5493442;26;19928;-87
2024/04/19 10:50:34;;;;;;;;;;;9.40;99.90;;;9.40;82.90;99460.81;5497331;26;19940;-86
2024/04/19 10:53:03;;;;;;;;;;;9.40;99.90;;;9.28;82.78;99445.66;5507076;26;20021;-86
2024/04/19 10:55:38;;;;;;;;;;;9.30;99.90;;;9.36;83.48;99463.13;5514461;26;19942;-86
2024/04/19 10:58:07;;;;;;;;;;;9.30;99.90;;;9.40;83.52;99453.66;5523890;26;19928;-86
2024/04/19 11:00:36;;;;;;;;;;;9.30;99.90;;;9.45;83.80;99456.44;5512603;26;19928;-86
2024/04/19 11:03:05;;;;;;;;;;;9.40;99.90;;;9.47;83.72;99466.88;5528417;26;19928;-86
2024/04/19 11:05:34;;;;;;;;;;;9.40;99.90;;;9.43;82.88;99452.41;5507661;25;19929;-87
2024/04/19 11:08:05;;;;;;;;;;;9.40;99.90;;;9.45;82.98;99450.31;5510466;26;19935;-86
2024/04/19 11:10:36;;;;;;;;;;;9.40;99.90;;;9.52;83.45;99429.72;5518647;26;20010;-86
2024/04/19 11:13:06;;;;;;;;;;;9.50;99.90;;;9.61;83.80;99448.81;5513543;26;19928;-86
2024/04/19 11:15:39;;;;;;;;;;;9.60;99.90;;;9.67;84.73;99440.75;5517598;25;19927;-87
2024/04/19 11:18:09;;;;;;;;;;;9.70;99.90;;;9.83;85.96;99444.56;5514404;26;19943;-87
2024/04/19 11:20:39;;;;;;;;;;;9.90;99.90;;;9.91;86.11;99435.44;5526634;25;19927;-88
2024/04/19 11:23:08;;;;;;;;;;;10.00;99.90;;;10.00;86.71;99437.50;5515932;26;19939;-86
2024/04/19 11:25:41;;;;;;;;;;;10.10;99.90;;;10.05;86.48;99431.44;5517241;26;19951;-87
2024/04/19 11:28:11;;;;;;;;;;;10.20;99.90;;;10.06;85.37;99431.25;5525993;25;19934;-87
2024/04/19 11:30:41;;;;;;;;;;;10.20;99.90;;;10.10;85.96;99428.09;5516901;26;19935;-87
2024/04/19 11:33:11;;;;;;;;;;;10.30;99.90;;;10.19;87.00;99435.50;5525244;26;20028;-87
2024/04/19 11:35:40;;;;;;;;;;;10.30;99.90;;;10.21;85.89;99421.94;5518314;25;19939;-87
2024/04/19 11:38:09;;;;;;;;;;;10.40;99.90;;;10.25;85.62;99421.28;5506791;26;19928;-86
2024/04/19 11:40:41;;;;;;;;;;;10.40;99.90;;;10.37;85.92;99407.13;5510097;25;19928;-87
2024/04/19 11:43:10;;;;;;;;;;;10.50;99.90;;;10.52;85.76;99410.06;5501715;26;19943;-86
2024/04/19 11:45:43;;;;;;;;;;;10.70;99.90;;;10.69;87.69;99407.47;5521405;26;20024;-86
2024/04/19 11:48:12;;;;;;;;;;;10.90;99.90;;;10.83;88.40;99404.28;5519538;26;20690;-87